BVG1894 GCLP-LKPR
Flight info
| Callsign | BVG1894 |
|---|---|
| Flight time | N/A |
| Altitude | 37000 |
| Route | KORA9A KORAL UG5 SONSO DCT ADUBI DCT VJF L27 MAR DCT ALCOL N871 TOPTU DCT TOU DCT GAI DCT MEN DCT NINUN DCT LATAM DCT ETREK DCT LTP DCT SOPLO DCT OMASI DCT KINNI DCT SOSAL DCT KORED DCT INTEG DCT KONIN DCT MEBEK DCT NENUM Z39 DOLUP DCT APRAQ APRA2T |
| Aircraft | B739/M-SDE2E3FGHIRWXY/LB1 |
Departure
| Time | N/A |
|---|---|
| Airport | Gran Canaria Airport (GCLP) |
Arrival
| Time | 2026-05-07 04:05 |
|---|---|
| Airport | Václav Havel Airport Prague (LKPR) |
| Time | Latitude | Longitude | Altitude | Speed | Heading |
|---|---|---|---|---|---|
| 2026-05-07 02:38 | 45.24177 | 4.78068 | 36997 ft | 478 kts | 60° |
| 2026-05-07 02:39 | 45.27196 | 4.86072 | 36996 ft | 478 kts | 60° |
| 2026-05-07 02:39 | 45.30052 | 4.93666 | 36997 ft | 478 kts | 60° |
| 2026-05-07 02:40 | 45.32970 | 5.01435 | 36996 ft | 478 kts | 60° |
| 2026-05-07 02:40 | 45.35809 | 5.08794 | 36998 ft | 478 kts | 60° |
| 2026-05-07 02:41 | 45.38718 | 5.16463 | 36997 ft | 478 kts | 60° |
| 2026-05-07 02:41 | 45.41534 | 5.24022 | 36996 ft | 478 kts | 60° |
| 2026-05-07 02:42 | 45.44341 | 5.31590 | 36997 ft | 478 kts | 60° |
| 2026-05-07 02:42 | 45.47153 | 5.39019 | 36996 ft | 477 kts | 57° |
| 2026-05-07 02:43 | 45.50968 | 5.46217 | 36998 ft | 474 kts | 44° |
| 2026-05-07 02:43 | 45.55403 | 5.52173 | 36992 ft | 472 kts | 39° |
| 2026-05-07 02:44 | 45.59919 | 5.57910 | 36997 ft | 472 kts | 39° |
| 2026-05-07 02:44 | 45.64593 | 5.63907 | 36996 ft | 472 kts | 39° |
| 2026-05-07 02:45 | 45.69181 | 5.69810 | 36997 ft | 472 kts | 39° |
| 2026-05-07 02:45 | 45.73954 | 5.75960 | 36996 ft | 472 kts | 39° |
| 2026-05-07 02:46 | 45.78609 | 5.81899 | 36997 ft | 472 kts | 39° |
| 2026-05-07 02:46 | 45.83241 | 5.87875 | 36997 ft | 472 kts | 39° |
| 2026-05-07 02:47 | 45.87993 | 5.94021 | 36996 ft | 472 kts | 39° |
| 2026-05-07 02:47 | 45.92761 | 6.00176 | 36997 ft | 472 kts | 39° |
| 2026-05-07 02:48 | 45.97505 | 6.06317 | 36998 ft | 472 kts | 40° |
| 2026-05-07 02:48 | 46.02251 | 6.12509 | 36997 ft | 472 kts | 40° |
| 2026-05-07 02:49 | 46.07165 | 6.18927 | 36997 ft | 472 kts | 40° |
| 2026-05-07 02:49 | 46.11801 | 6.25210 | 36997 ft | 473 kts | 43° |
| 2026-05-07 02:50 | 46.16171 | 6.31494 | 36997 ft | 473 kts | 43° |
| 2026-05-07 02:50 | 46.20027 | 6.37020 | 36996 ft | 473 kts | 43° |
| 2026-05-07 02:51 | 46.25356 | 6.44650 | 36997 ft | 473 kts | 43° |
| 2026-05-07 02:51 | 46.29813 | 6.51042 | 36997 ft | 473 kts | 43° |
| 2026-05-07 02:52 | 46.34200 | 6.57293 | 36997 ft | 472 kts | 41° |
| 2026-05-07 02:52 | 46.38684 | 6.63616 | 36997 ft | 473 kts | 42° |
| 2026-05-07 02:53 | 46.43304 | 6.70272 | 36997 ft | 473 kts | 43° |
| 2026-05-07 02:53 | 46.47657 | 6.76578 | 36998 ft | 473 kts | 43° |
| 2026-05-07 02:54 | 46.52340 | 6.83373 | 36997 ft | 473 kts | 43° |
| 2026-05-07 02:54 | 46.56657 | 6.89815 | 36997 ft | 474 kts | 47° |
| 2026-05-07 02:55 | 46.59985 | 6.95764 | 36997 ft | 475 kts | 50° |
| 2026-05-07 02:55 | 46.63938 | 7.03019 | 36997 ft | 475 kts | 49° |
| 2026-05-07 02:56 | 46.67954 | 7.10189 | 36997 ft | 474 kts | 49° |
| 2026-05-07 02:56 | 46.71999 | 7.17491 | 36997 ft | 474 kts | 49° |
| 2026-05-07 02:57 | 46.76042 | 7.24852 | 36998 ft | 474 kts | 49° |
| 2026-05-07 02:57 | 46.79970 | 7.32023 | 36997 ft | 474 kts | 49° |
| 2026-05-07 02:58 | 46.83756 | 7.39749 | 36997 ft | 477 kts | 60° |
| 2026-05-07 02:58 | 46.85084 | 7.44101 | 36992 ft | 479 kts | 71° |
| 2026-05-07 02:58 | 46.85928 | 7.48442 | 37000 ft | 479 kts | 76° |
| 2026-05-07 02:59 | 46.87240 | 7.57787 | 36995 ft | 480 kts | 79° |
| 2026-05-07 02:59 | 46.88388 | 7.67078 | 36997 ft | 480 kts | 79° |
| 2026-05-07 03:00 | 46.89466 | 7.75781 | 36997 ft | 480 kts | 79° |
| 2026-05-07 03:00 | 46.90583 | 7.84804 | 36997 ft | 480 kts | 79° |
| 2026-05-07 03:01 | 46.91700 | 7.93676 | 36997 ft | 479 kts | 78° |
| 2026-05-07 03:01 | 46.92898 | 8.02758 | 36997 ft | 479 kts | 78° |
| 2026-05-07 03:02 | 46.94055 | 8.11856 | 36997 ft | 479 kts | 79° |
| 2026-05-07 03:02 | 46.95216 | 8.21173 | 36997 ft | 479 kts | 79° |
| 2026-05-07 03:03 | 46.96384 | 8.30663 | 36997 ft | 479 kts | 79° |
| 2026-05-07 03:03 | 46.97534 | 8.40083 | 36996 ft | 479 kts | 79° |
| 2026-05-07 03:04 | 46.98633 | 8.49156 | 36996 ft | 479 kts | 79° |
| 2026-05-07 03:04 | 46.99733 | 8.58308 | 36997 ft | 479 kts | 79° |
| 2026-05-07 03:05 | 47.00867 | 8.67801 | 36996 ft | 479 kts | 79° |
| 2026-05-07 03:05 | 47.01982 | 8.77220 | 36997 ft | 479 kts | 79° |
| 2026-05-07 03:06 | 47.03072 | 8.86491 | 36997 ft | 479 kts | 79° |
| 2026-05-07 03:06 | 47.04164 | 8.95835 | 36997 ft | 479 kts | 79° |
| 2026-05-07 03:07 | 47.05253 | 9.05230 | 36998 ft | 479 kts | 80° |
| 2026-05-07 03:07 | 47.06318 | 9.14495 | 36997 ft | 479 kts | 80° |
| 2026-05-07 03:08 | 47.07338 | 9.23426 | 36997 ft | 479 kts | 80° |
| 2026-05-07 03:08 | 47.08399 | 9.32785 | 36997 ft | 479 kts | 80° |
| 2026-05-07 03:09 | 47.09455 | 9.42176 | 36997 ft | 479 kts | 80° |
| 2026-05-07 03:09 | 47.10518 | 9.51401 | 36997 ft | 479 kts | 79° |
| 2026-05-07 03:10 | 47.11553 | 9.60574 | 36996 ft | 479 kts | 80° |
| 2026-05-07 03:10 | 47.12585 | 9.70095 | 36997 ft | 479 kts | 81° |
| 2026-05-07 03:11 | 47.13584 | 9.79420 | 36997 ft | 479 kts | 81° |
| 2026-05-07 03:11 | 47.14714 | 9.88681 | 36990 ft | 478 kts | 73° |
| 2026-05-07 03:12 | 47.17304 | 9.97348 | 37010 ft | 475 kts | 56° |
| 2026-05-07 03:12 | 47.20911 | 10.05118 | 36998 ft | 475 kts | 52° |
| 2026-05-07 03:13 | 47.24554 | 10.12439 | 36998 ft | 474 kts | 52° |
| 2026-05-07 03:13 | 47.28273 | 10.19913 | 36997 ft | 474 kts | 52° |
| 2026-05-07 03:14 | 47.32032 | 10.27484 | 36996 ft | 474 kts | 52° |
| 2026-05-07 03:15 | 47.37858 | 10.39133 | 36996 ft | 474 kts | 51° |
| 2026-05-07 03:15 | 47.41640 | 10.46671 | 36997 ft | 474 kts | 52° |
| 2026-05-07 03:16 | 47.45436 | 10.54314 | 36996 ft | 474 kts | 52° |
| 2026-05-07 03:16 | 47.49273 | 10.62080 | 36997 ft | 474 kts | 52° |
| 2026-05-07 03:17 | 47.53012 | 10.69676 | 36997 ft | 474 kts | 52° |
| 2026-05-07 03:17 | 47.56702 | 10.77193 | 36998 ft | 474 kts | 52° |
| 2026-05-07 03:18 | 47.60526 | 10.85007 | 36996 ft | 474 kts | 52° |
| 2026-05-07 03:18 | 47.64223 | 10.92583 | 36997 ft | 474 kts | 52° |
| 2026-05-07 03:19 | 47.67985 | 11.00260 | 36997 ft | 474 kts | 52° |
| 2026-05-07 03:19 | 47.71766 | 11.07993 | 36997 ft | 474 kts | 52° |
| 2026-05-07 03:20 | 47.75478 | 11.15692 | 36997 ft | 474 kts | 52° |
| 2026-05-07 03:20 | 47.79129 | 11.23296 | 36998 ft | 474 kts | 52° |
| 2026-05-07 03:21 | 47.82842 | 11.31041 | 36997 ft | 474 kts | 52° |
| 2026-05-07 03:21 | 47.86334 | 11.39212 | 36998 ft | 476 kts | 61° |
| 2026-05-07 03:22 | 47.89240 | 11.48168 | 36997 ft | 476 kts | 63° |
| 2026-05-07 03:22 | 47.91859 | 11.56445 | 36997 ft | 476 kts | 63° |
| 2026-05-07 03:23 | 47.94622 | 11.65200 | 36996 ft | 476 kts | 63° |
| 2026-05-07 03:23 | 47.97401 | 11.74028 | 36996 ft | 476 kts | 63° |
| 2026-05-07 03:24 | 48.00130 | 11.82721 | 36997 ft | 476 kts | 63° |
| 2026-05-07 03:24 | 48.02962 | 11.91509 | 36996 ft | 476 kts | 63° |
| 2026-05-07 03:25 | 48.05749 | 12.00314 | 36996 ft | 476 kts | 63° |
| 2026-05-07 03:25 | 48.08365 | 12.08656 | 36997 ft | 476 kts | 63° |
| 2026-05-07 03:26 | 48.11187 | 12.17568 | 36997 ft | 476 kts | 63° |
| 2026-05-07 03:26 | 48.13926 | 12.26347 | 36997 ft | 476 kts | 64° |
| 2026-05-07 03:27 | 48.16639 | 12.35165 | 36997 ft | 476 kts | 64° |
| 2026-05-07 03:27 | 48.19287 | 12.43811 | 36994 ft | 476 kts | 64° |
| 2026-05-07 03:28 | 48.22118 | 12.52495 | 36993 ft | 475 kts | 57° |
| 2026-05-07 03:28 | 48.26141 | 12.60020 | 36953 ft | 472 kts | 42° |
| 2026-05-07 03:29 | 48.30877 | 12.66165 | 36899 ft | 466 kts | 36° |
| 2026-05-07 03:29 | 48.35906 | 12.72286 | 36717 ft | 469 kts | 37° |
| 2026-05-07 03:29 | 48.38291 | 12.75247 | 36503 ft | 468 kts | 37° |
| 2026-05-07 03:30 | 48.40530 | 12.78039 | 36299 ft | 464 kts | 37° |
| 2026-05-07 03:30 | 48.42893 | 12.80994 | 36080 ft | 457 kts | 37° |
| 2026-05-07 03:30 | 48.45279 | 12.83983 | 35858 ft | 450 kts | 37° |
| 2026-05-07 03:30 | 48.47452 | 12.86707 | 35653 ft | 445 kts | 37° |
| 2026-05-07 03:31 | 48.49869 | 12.89739 | 35420 ft | 438 kts | 37° |
| 2026-05-07 03:31 | 48.52186 | 12.92635 | 35195 ft | 435 kts | 36° |
| 2026-05-07 03:31 | 48.54554 | 12.95246 | 34977 ft | 431 kts | 30° |
| 2026-05-07 03:31 | 48.57035 | 12.97554 | 34757 ft | 427 kts | 26° |
| 2026-05-07 03:32 | 48.59623 | 12.99725 | 34531 ft | 424 kts | 26° |
| 2026-05-07 03:32 | 48.61987 | 13.01734 | 34323 ft | 422 kts | 26° |
| 2026-05-07 03:32 | 48.64459 | 13.03858 | 34104 ft | 420 kts | 26° |
| 2026-05-07 03:32 | 48.66681 | 13.05769 | 33906 ft | 418 kts | 26° |
| 2026-05-07 03:33 | 48.69224 | 13.07970 | 33676 ft | 416 kts | 28° |
| 2026-05-07 03:33 | 48.71645 | 13.10216 | 33457 ft | 413 kts | 26° |
| 2026-05-07 03:33 | 48.74032 | 13.12197 | 33241 ft | 411 kts | 25° |
| 2026-05-07 03:33 | 48.76472 | 13.14228 | 33020 ft | 409 kts | 26° |
| 2026-05-07 03:34 | 48.78825 | 13.16241 | 32822 ft | 406 kts | 26° |
| 2026-05-07 03:34 | 48.81175 | 13.18273 | 32595 ft | 404 kts | 26° |
| 2026-05-07 03:34 | 48.83565 | 13.20346 | 32292 ft | 402 kts | 26° |
| 2026-05-07 03:34 | 48.85874 | 13.22349 | 32006 ft | 400 kts | 26° |
| 2026-05-07 03:35 | 48.88210 | 13.24306 | 31713 ft | 395 kts | 23° |
| 2026-05-07 03:35 | 48.90701 | 13.26040 | 31413 ft | 391 kts | 19° |
| 2026-05-07 03:35 | 48.93015 | 13.27480 | 31135 ft | 388 kts | 18° |
| 2026-05-07 03:35 | 48.95452 | 13.28974 | 30842 ft | 386 kts | 19° |
| 2026-05-07 03:36 | 48.96957 | 13.29918 | 30658 ft | 384 kts | 19° |
| 2026-05-07 03:36 | 49.00127 | 13.31932 | 30269 ft | 380 kts | 19° |
| 2026-05-07 03:36 | 49.02529 | 13.33471 | 29971 ft | 377 kts | 19° |
| 2026-05-07 03:36 | 49.04824 | 13.34945 | 29684 ft | 375 kts | 19° |
| 2026-05-07 03:37 | 49.06378 | 13.35945 | 29466 ft | 373 kts | 19° |
| 2026-05-07 03:37 | 49.09502 | 13.37992 | 28999 ft | 370 kts | 22° |
| 2026-05-07 03:37 | 49.11713 | 13.39880 | 28653 ft | 369 kts | 29° |
| 2026-05-07 03:37 | 49.13059 | 13.41310 | 28430 ft | 368 kts | 33° |
| 2026-05-07 03:38 | 49.15558 | 13.44443 | 27949 ft | 366 kts | 38° |
| 2026-05-07 03:38 | 49.17386 | 13.46927 | 27567 ft | 364 kts | 39° |
| 2026-05-07 03:38 | 49.19290 | 13.49538 | 27162 ft | 362 kts | 39° |
| 2026-05-07 03:38 | 49.21133 | 13.52067 | 26768 ft | 361 kts | 39° |
| 2026-05-07 03:39 | 49.22350 | 13.53736 | 26507 ft | 360 kts | 39° |
| 2026-05-07 03:39 | 49.24788 | 13.57081 | 25921 ft | 359 kts | 39° |
| 2026-05-07 03:39 | 49.26030 | 13.58786 | 25687 ft | 356 kts | 39° |
| 2026-05-07 03:39 | 49.28390 | 13.62029 | 25482 ft | 344 kts | 39° |
| 2026-05-07 03:40 | 49.30161 | 13.64464 | 25180 ft | 340 kts | 38° |
| 2026-05-07 03:40 | 49.31168 | 13.65848 | 25007 ft | 338 kts | 38° |
| 2026-05-07 03:40 | 49.33538 | 13.69112 | 24593 ft | 333 kts | 38° |
| 2026-05-07 03:40 | 49.35195 | 13.71393 | 24194 ft | 333 kts | 38° |
| 2026-05-07 03:41 | 49.36368 | 13.73011 | 23905 ft | 333 kts | 38° |
| 2026-05-07 03:41 | 49.38625 | 13.76087 | 23593 ft | 324 kts | 38° |
| 2026-05-07 03:41 | 49.39693 | 13.77533 | 23473 ft | 319 kts | 38° |
| 2026-05-07 03:41 | 49.41355 | 13.79771 | 23098 ft | 318 kts | 37° |
| 2026-05-07 03:42 | 49.42904 | 13.81858 | 22761 ft | 317 kts | 38° |
| 2026-05-07 03:42 | 49.44359 | 13.83843 | 22431 ft | 315 kts | 38° |
| 2026-05-07 03:42 | 49.46006 | 13.86107 | 22050 ft | 313 kts | 38° |
| 2026-05-07 03:42 | 49.47604 | 13.88315 | 21694 ft | 310 kts | 38° |
| 2026-05-07 03:43 | 49.49117 | 13.90413 | 21536 ft | 301 kts | 38° |
| 2026-05-07 03:43 | 49.50626 | 13.92511 | 21303 ft | 294 kts | 38° |
| 2026-05-07 03:43 | 49.52150 | 13.94631 | 21069 ft | 287 kts | 38° |
| 2026-05-07 03:43 | 49.53621 | 13.96681 | 20838 ft | 281 kts | 38° |
| 2026-05-07 03:44 | 49.55011 | 13.98620 | 20614 ft | 275 kts | 38° |
| 2026-05-07 03:44 | 49.56411 | 14.00575 | 20381 ft | 269 kts | 38° |
| 2026-05-07 03:44 | 49.57743 | 14.02434 | 20157 ft | 263 kts | 38° |
| 2026-05-07 03:44 | 49.59065 | 14.04282 | 19927 ft | 257 kts | 38° |
| 2026-05-07 03:45 | 49.60311 | 14.06022 | 19640 ft | 255 kts | 38° |
| 2026-05-07 03:45 | 49.61583 | 14.07799 | 19321 ft | 254 kts | 38° |
| 2026-05-07 03:45 | 49.62853 | 14.09572 | 19001 ft | 250 kts | 38° |
| 2026-05-07 03:45 | 49.64064 | 14.11267 | 18668 ft | 247 kts | 38° |
| 2026-05-07 03:46 | 49.65313 | 14.13005 | 18319 ft | 244 kts | 37° |
| 2026-05-07 03:46 | 49.66569 | 14.14740 | 17966 ft | 241 kts | 37° |
| 2026-05-07 03:46 | 49.67774 | 14.16419 | 17623 ft | 238 kts | 37° |
| 2026-05-07 03:46 | 49.68997 | 14.18132 | 17269 ft | 235 kts | 38° |
| 2026-05-07 03:47 | 49.70136 | 14.19734 | 16933 ft | 232 kts | 38° |
| 2026-05-07 03:47 | 49.71299 | 14.21372 | 16591 ft | 228 kts | 38° |
| 2026-05-07 03:47 | 49.72436 | 14.22979 | 16245 ft | 224 kts | 38° |
| 2026-05-07 03:47 | 49.73565 | 14.24574 | 15929 ft | 218 kts | 37° |
| 2026-05-07 03:48 | 49.74611 | 14.26055 | 15586 ft | 214 kts | 37° |
| 2026-05-07 03:48 | 49.75685 | 14.27576 | 15196 ft | 215 kts | 37° |
| 2026-05-07 03:48 | 49.76668 | 14.28970 | 14852 ft | 214 kts | 38° |
| 2026-05-07 03:48 | 49.77801 | 14.30576 | 14442 ft | 214 kts | 38° |
| 2026-05-07 03:49 | 49.78830 | 14.32036 | 14070 ft | 215 kts | 38° |
| 2026-05-07 03:49 | 49.79936 | 14.33605 | 13695 ft | 213 kts | 38° |
| 2026-05-07 03:49 | 49.81030 | 14.35156 | 13448 ft | 204 kts | 37° |
| 2026-05-07 03:49 | 49.82060 | 14.36615 | 13082 ft | 202 kts | 37° |
| 2026-05-07 03:50 | 49.83063 | 14.37996 | 12698 ft | 198 kts | 30° |
| 2026-05-07 03:50 | 49.84266 | 14.38679 | 12243 ft | 189 kts | 0° |
| 2026-05-07 03:50 | 49.85403 | 14.38633 | 11861 ft | 182 kts | 345° |
| 2026-05-07 03:50 | 49.86654 | 14.38385 | 11422 ft | 183 kts | 351° |
| 2026-05-07 03:51 | 49.87922 | 14.38346 | 10972 ft | 182 kts | 347° |
| 2026-05-07 03:51 | 49.89106 | 14.37955 | 10543 ft | 178 kts | 337° |
| 2026-05-07 03:51 | 49.90201 | 14.37389 | 10125 ft | 177 kts | 334° |
| 2026-05-07 03:51 | 49.91202 | 14.36849 | 9737 ft | 177 kts | 335° |
| 2026-05-07 03:52 | 49.92260 | 14.36324 | 9334 ft | 177 kts | 336° |
| 2026-05-07 03:52 | 49.93455 | 14.35727 | 8889 ft | 177 kts | 336° |
| 2026-05-07 03:52 | 49.94558 | 14.35172 | 8593 ft | 169 kts | 334° |
| 2026-05-07 03:52 | 49.95486 | 14.34248 | 8252 ft | 159 kts | 308° |
| 2026-05-07 03:53 | 49.96132 | 14.32978 | 8005 ft | 153 kts | 307° |
| 2026-05-07 03:53 | 49.96827 | 14.31753 | 7782 ft | 151 kts | 305° |
| 2026-05-07 03:53 | 49.97409 | 14.30636 | 7493 ft | 146 kts | 304° |
| 2026-05-07 03:53 | 49.98028 | 14.29401 | 7174 ft | 142 kts | 303° |
| 2026-05-07 03:54 | 49.98626 | 14.28182 | 6862 ft | 139 kts | 303° |
| 2026-05-07 03:54 | 49.99172 | 14.27065 | 6573 ft | 137 kts | 303° |
| 2026-05-07 03:54 | 49.99733 | 14.25915 | 6273 ft | 135 kts | 304° |
| 2026-05-07 03:54 | 50.00286 | 14.24781 | 5967 ft | 134 kts | 306° |
| 2026-05-07 03:55 | 50.00836 | 14.23652 | 5674 ft | 136 kts | 307° |
| 2026-05-07 03:55 | 50.01118 | 14.22267 | 5318 ft | 143 kts | 269° |
| 2026-05-07 03:55 | 50.00772 | 14.20796 | 5067 ft | 146 kts | 244° |
| 2026-05-07 03:55 | 50.00267 | 14.19486 | 4959 ft | 144 kts | 240° |
| 2026-05-07 03:56 | 49.99767 | 14.18162 | 4971 ft | 144 kts | 243° |
| 2026-05-07 03:56 | 49.99309 | 14.16812 | 5001 ft | 147 kts | 245° |
| 2026-05-07 03:56 | 49.98876 | 14.15457 | 5010 ft | 147 kts | 246° |
| 2026-05-07 03:56 | 49.98456 | 14.14103 | 4912 ft | 147 kts | 246° |
| 2026-05-07 03:57 | 49.98024 | 14.12697 | 4764 ft | 147 kts | 246° |
| 2026-05-07 03:57 | 49.97594 | 14.11294 | 4615 ft | 146 kts | 245° |
| 2026-05-07 03:57 | 49.97170 | 14.09901 | 4468 ft | 145 kts | 245° |
| 2026-05-07 03:57 | 49.96754 | 14.08536 | 4323 ft | 145 kts | 244° |
| 2026-05-07 03:58 | 49.96329 | 14.07140 | 4175 ft | 144 kts | 245° |
| 2026-05-07 03:58 | 49.95950 | 14.05713 | 3999 ft | 145 kts | 260° |
| 2026-05-07 03:58 | 49.96134 | 14.04195 | 3965 ft | 143 kts | 292° |
| 2026-05-07 03:58 | 49.96651 | 14.03063 | 3986 ft | 145 kts | 319° |
| 2026-05-07 03:59 | 49.97546 | 14.02276 | 4027 ft | 144 kts | 334° |
| 2026-05-07 03:59 | 49.98401 | 14.01628 | 4029 ft | 144 kts | 333° |
| 2026-05-07 03:59 | 49.99255 | 14.00902 | 4008 ft | 144 kts | 332° |
| 2026-05-07 03:59 | 50.00222 | 14.00347 | 4001 ft | 144 kts | 339° |
| 2026-05-07 04:00 | 50.01040 | 13.99815 | 4008 ft | 144 kts | 339° |
| 2026-05-07 04:00 | 50.01940 | 13.99624 | 3958 ft | 145 kts | 5° |
| 2026-05-07 04:00 | 50.02830 | 14.00164 | 3969 ft | 146 kts | 33° |
| 2026-05-07 04:00 | 50.03433 | 14.01181 | 3987 ft | 144 kts | 56° |
| 2026-05-07 04:01 | 50.03993 | 14.02560 | 3999 ft | 144 kts | 59° |
| 2026-05-07 04:01 | 50.04489 | 14.03910 | 3847 ft | 145 kts | 62° |
| 2026-05-07 04:01 | 50.04938 | 14.05273 | 3634 ft | 143 kts | 63° |
| 2026-05-07 04:01 | 50.05322 | 14.06497 | 3468 ft | 143 kts | 64° |
| 2026-05-07 04:02 | 50.05753 | 14.07899 | 3285 ft | 143 kts | 64° |
| 2026-05-07 04:02 | 50.06178 | 14.09299 | 3094 ft | 142 kts | 65° |
| 2026-05-07 04:02 | 50.06587 | 14.10655 | 2909 ft | 142 kts | 65° |
| 2026-05-07 04:02 | 50.06993 | 14.12003 | 2727 ft | 141 kts | 65° |
| 2026-05-07 04:03 | 50.07378 | 14.13286 | 2554 ft | 141 kts | 65° |
| 2026-05-07 04:03 | 50.07795 | 14.14672 | 2367 ft | 140 kts | 65° |
| 2026-05-07 04:03 | 50.08192 | 14.15996 | 2187 ft | 140 kts | 65° |
| 2026-05-07 04:03 | 50.08605 | 14.17370 | 2000 ft | 140 kts | 65° |
| 2026-05-07 04:04 | 50.09013 | 14.18731 | 1816 ft | 139 kts | 65° |
| 2026-05-07 04:04 | 50.09417 | 14.20075 | 1635 ft | 139 kts | 65° |
| 2026-05-07 04:04 | 50.09804 | 14.21365 | 1460 ft | 139 kts | 65° |
| 2026-05-07 04:04 | 50.10200 | 14.22687 | 1285 ft | 137 kts | 65° |
| 2026-05-07 04:05 | 50.10548 | 14.23827 | 1255 ft | 89 kts | 68° |
| 2026-05-07 04:05 | 50.10742 | 14.24574 | 1255 ft | 63 kts | 66° |
| 2026-05-07 04:05 | 50.10906 | 14.25065 | 1255 ft | 38 kts | 62° |
| 2026-05-07 04:05 | 50.10857 | 14.25214 | 1255 ft | 15 kts | 213° |
| 2026-05-07 04:06 | 50.10821 | 14.25179 | 1255 ft | 0 kts | 204° |